Terminal Aerodrome Forecast
Issued by NWS

Home | Current Version | Previous Version | Text Only | Print | Product List | Glossary On
Versions: 1 2 3 4 5 6 7 8 9 10 11 12 13 14 15 16 17 18 19 20 21 22 23 24 25 26 27 28 29 30 31 32 33 34 35 36 37 38 39 40
000
FTAK31 PAFA 201800 AAA
TAFAUN
TAF AMD
PAUN 201800Z 2018/2118 11006KT 2SM -SN BR SCT006 BKN020 OVC070
      TEMPO 2018/2021 3/4SM -SN BR BKN010
     FM202300 14008KT P6SM SCT025 OVC050
     FM210300 11013KT 1 1/2SM -SN BR BKN015 OVC025
     FM211500 11013KT 3SM -SN BR SCT015 OVC050=

USA.gov is the U.S. government's official web portal to all federal, state and local government web resources and services.